Nambucca Heads, Australia
Current Conditions -  °F | °C
As of 9:30 PM on Friday 24 Oct 2014 (Local Time) from YCFS Reporting Station
Clear Clear  
Wind Chill: 68°   Ceiling: Unl
Heat Index: 68°   Visibility: 6mi
Dew Point: 59°   Wind: 21mph
Humidity: 73%   Direction: 360°N
Pressure: 30.12"   Gusts: NA
Location:  30.64°S, 153°E
Report Text: YCFS 241030Z AUTO 36018KT 9999 // NCD 20/15 Q1020
Loading
Personal Weather Stations






























Interactive Weather Map
Tropical Storm Tracking
New forecast layout! Learn more

10-Day Weather Forecast

Advertisements
Track Severe Weather on mobile